createdAt,value
2023-01-25T00:01:05.273Z,28.65
2023-01-25T00:03:33.788Z,28.83
2023-01-25T00:06:02.421Z,27.13
2023-01-25T00:08:30.753Z,28.50
2023-01-25T00:10:59.044Z,27.50
2023-01-25T00:13:27.709Z,30.40
2023-01-25T00:16:02.288Z,30.73
2023-01-25T00:18:30.762Z,30.48
2023-01-25T00:20:59.032Z,24.40
2023-01-25T00:23:27.302Z,26.58
2023-01-25T00:25:59.050Z,27.60
2023-01-25T00:28:27.623Z,25.17
2023-01-25T00:31:01.128Z,27.30
2023-01-25T00:33:35.421Z,29.85
2023-01-25T00:36:03.992Z,27.80
2023-01-25T00:38:35.421Z,29.00
2023-01-25T00:41:03.740Z,28.35
2023-01-25T00:43:32.010Z,26.40
2023-01-25T00:46:03.739Z,27.35
2023-01-25T00:48:32.164Z,28.40
2023-01-25T00:51:02.227Z,27.65
2023-01-25T00:53:30.745Z,29.02
2023-01-25T00:55:59.413Z,29.75
2023-01-25T00:58:27.719Z,26.67
2023-01-25T01:00:57.045Z,27.60
2023-01-25T01:03:26.997Z,28.10
2023-01-25T01:06:01.077Z,27.52
2023-01-25T01:08:29.892Z,29.77
2023-01-25T01:11:01.864Z,27.30
2023-01-25T01:13:30.540Z,26.70
2023-01-25T01:15:59.261Z,29.85
2023-01-25T01:18:28.836Z,26.65
2023-01-25T01:20:57.455Z,26.83
2023-01-25T01:23:25.717Z,25.48
2023-01-25T01:25:53.917Z,27.92
2023-01-25T01:28:22.206Z,32.60
2023-01-25T01:30:50.406Z,27.42
2023-01-25T01:33:18.827Z,26.83
2023-01-25T01:35:48.553Z,25.25
2023-01-25T01:38:19.020Z,27.88
2023-01-25T01:40:47.649Z,28.65
2023-01-25T01:43:18.337Z,29.13
2023-01-25T01:45:55.261Z,28.35
2023-01-25T01:48:34.724Z,27.52
2023-01-25T01:51:10.413Z,29.52
2023-01-25T01:53:39.690Z,30.08
2023-01-25T01:56:12.397Z,28.45
2023-01-25T01:58:41.665Z,27.73
2023-01-25T02:01:10.122Z,31.00
2023-01-25T02:03:38.407Z,26.25
2023-01-25T02:06:11.763Z,29.42
2023-01-25T02:08:40.851Z,26.30
2023-01-25T02:11:10.841Z,27.05
2023-01-25T02:13:39.205Z,28.27
2023-01-25T02:16:08.324Z,27.30
2023-01-25T02:18:37.044Z,29.27
2023-01-25T02:21:05.615Z,32.85
2023-01-25T02:23:40.538Z,28.35
2023-01-25T02:26:10.869Z,27.00
2023-01-25T02:28:41.260Z,27.98
2023-01-25T02:31:09.654Z,28.38
2023-01-25T02:33:38.231Z,27.38
2023-01-25T02:36:17.584Z,32.13
2023-01-25T02:38:48.536Z,31.23
2023-01-25T02:41:20.005Z,27.92
2023-01-25T02:43:48.599Z,31.35
2023-01-25T02:46:20.165Z,29.38
2023-01-25T02:48:48.468Z,28.20
2023-01-25T02:51:16.808Z,29.33
2023-01-25T02:53:45.040Z,30.45
2023-01-25T02:56:13.265Z,32.97
2023-01-25T02:58:42.954Z,27.23
2023-01-25T03:01:11.890Z,30.48
2023-01-25T03:03:42.467Z,28.95
2023-01-25T03:06:10.914Z,28.70
2023-01-25T03:08:39.116Z,24.65
2023-01-25T03:11:08.917Z,28.15
2023-01-25T03:13:38.243Z,30.08
2023-01-25T03:16:09.892Z,33.20
2023-01-25T03:18:40.217Z,34.40
2023-01-25T03:21:10.354Z,29.90
2023-01-25T03:23:38.817Z,30.83
2023-01-25T03:26:12.015Z,31.02
2023-01-25T03:28:48.668Z,29.15
2023-01-25T03:31:18.867Z,32.67
2023-01-25T03:33:47.702Z,27.92
2023-01-25T03:36:15.988Z,34.08
2023-01-25T03:38:44.460Z,27.70
2023-01-25T03:41:14.063Z,32.58
2023-01-25T03:43:42.526Z,32.65
2023-01-25T03:46:10.858Z,30.40
2023-01-25T03:48:41.614Z,33.85
2023-01-25T03:51:10.949Z,34.75
2023-01-25T03:53:39.330Z,34.03
2023-01-25T03:56:17.546Z,39.53
2023-01-25T03:58:51.939Z,34.75
2023-01-25T04:01:20.373Z,37.42
2023-01-25T04:03:50.052Z,33.83
2023-01-25T04:06:19.173Z,35.78
2023-01-25T04:08:47.638Z,33.35
2023-01-25T04:11:16.070Z,34.13
2023-01-25T04:13:47.106Z,36.85
2023-01-25T04:16:17.645Z,37.10
2023-01-25T04:19:12.723Z,39.63
2023-01-25T04:21:41.329Z,34.75
2023-01-25T04:24:09.698Z,37.35
2023-01-25T04:26:41.317Z,38.65
2023-01-25T04:29:09.810Z,37.00
2023-01-25T04:31:38.202Z,34.47
2023-01-25T04:34:07.319Z,37.65
2023-01-25T04:36:37.027Z,37.47
2023-01-25T04:39:05.311Z,39.35
2023-01-25T04:41:33.796Z,39.60
2023-01-25T04:44:02.105Z,38.92
2023-01-25T04:46:30.637Z,36.08
2023-01-25T04:48:58.943Z,37.03
2023-01-25T04:51:27.234Z,42.63
2023-01-25T04:53:56.830Z,38.45
2023-01-25T04:56:25.637Z,39.28
2023-01-25T04:58:56.917Z,41.20
2023-01-25T05:01:25.357Z,42.55
2023-01-25T05:03:54.189Z,34.60
2023-01-25T05:06:34.005Z,38.67
2023-01-25T05:09:03.642Z,38.50
2023-01-25T05:11:32.754Z,38.80
2023-01-25T05:14:06.195Z,39.45
2023-01-25T05:16:35.582Z,36.22
2023-01-25T05:19:05.289Z,39.08
2023-01-25T05:21:58.787Z,42.28
2023-01-25T05:24:33.112Z,46.72
2023-01-25T05:27:04.465Z,42.33
2023-01-25T05:29:51.383Z,38.40
2023-01-25T05:32:21.927Z,40.95
2023-01-25T05:34:51.191Z,40.70
2023-01-25T05:37:21.841Z,39.17
2023-01-25T05:39:58.737Z,40.80
2023-01-25T05:42:27.394Z,38.28
2023-01-25T05:44:56.023Z,43.92
2023-01-25T05:47:25.191Z,42.25
2023-01-25T05:49:53.778Z,42.28
2023-01-25T05:52:31.416Z,47.47
2023-01-25T05:55:01.435Z,41.85
2023-01-25T05:57:29.728Z,46.53
2023-01-25T06:00:00.143Z,42.20
2023-01-25T06:02:28.841Z,44.88
2023-01-25T06:04:57.253Z,35.30
2023-01-25T06:07:25.736Z,40.97
2023-01-25T06:09:54.026Z,47.75
2023-01-25T06:12:23.885Z,40.67
2023-01-25T06:14:52.219Z,44.67
2023-01-25T06:17:20.490Z,39.47
2023-01-25T06:20:04.179Z,42.13
2023-01-25T06:22:38.820Z,37.33
2023-01-25T06:25:08.141Z,41.78
2023-01-25T06:27:38.194Z,38.05
2023-01-25T06:30:07.177Z,37.50
2023-01-25T06:32:35.640Z,38.45
2023-01-25T06:35:03.943Z,39.70
2023-01-25T06:37:33.233Z,40.33
2023-01-25T06:40:01.595Z,39.53
2023-01-25T06:42:29.838Z,39.17
2023-01-25T06:44:59.792Z,41.67
2023-01-25T06:47:28.153Z,40.17
2023-01-25T06:49:56.697Z,37.70
2023-01-25T06:52:25.001Z,37.78
2023-01-25T06:54:53.464Z,43.95
2023-01-25T06:57:21.806Z,41.67
2023-01-25T06:59:50.034Z,38.13
2023-01-25T07:02:19.868Z,42.72
2023-01-25T07:04:48.388Z,42.83
2023-01-25T07:07:16.652Z,37.10
2023-01-25T07:09:44.943Z,38.67
2023-01-25T07:12:13.167Z,42.35
2023-01-25T07:14:41.473Z,39.40
2023-01-25T07:17:09.784Z,42.55
2023-01-25T07:19:39.351Z,37.50
2023-01-25T07:22:07.657Z,38.53
2023-01-25T07:24:36.182Z,38.92
2023-01-25T07:27:04.525Z,39.95
2023-01-25T07:29:32.790Z,43.10
2023-01-25T07:32:01.234Z,39.55
2023-01-25T07:34:29.876Z,41.90
2023-01-25T07:36:59.813Z,41.83
2023-01-25T07:39:28.518Z,39.42
2023-01-25T07:41:56.827Z,42.00
2023-01-25T07:44:33.236Z,40.72
2023-01-25T07:47:13.772Z,37.67
2023-01-25T07:49:42.205Z,37.42
2023-01-25T07:52:11.753Z,42.30
2023-01-25T07:54:39.960Z,41.40
2023-01-25T07:57:08.446Z,44.38
2023-01-25T07:59:36.654Z,42.85
2023-01-25T08:02:05.075Z,43.90
2023-01-25T08:04:33.399Z,42.70
2023-01-25T08:07:01.752Z,38.90
2023-01-25T08:09:31.676Z,41.33
2023-01-25T08:12:00.126Z,45.50
2023-01-25T08:14:28.590Z,41.22
2023-01-25T08:16:56.764Z,41.92
2023-01-25T08:19:26.803Z,39.20
2023-01-25T08:21:55.018Z,39.75
2023-01-25T08:24:24.664Z,41.20
2023-01-25T08:26:55.323Z,39.67
2023-01-25T08:29:23.835Z,44.10
2023-01-25T08:31:52.166Z,42.38
2023-01-25T08:34:20.868Z,42.28
2023-01-25T08:39:23.198Z,42.72
2023-01-25T08:41:51.503Z,46.13
2023-01-25T08:44:24.180Z,47.35
2023-01-25T08:46:52.492Z,45.78
2023-01-25T08:49:20.857Z,49.70
2023-01-25T08:51:50.359Z,43.38
2023-01-25T08:54:18.840Z,46.75
2023-01-25T08:56:47.066Z,44.13
2023-01-25T08:59:15.499Z,39.53
2023-01-25T09:01:45.315Z,40.08
2023-01-25T09:04:13.582Z,46.67
2023-01-25T09:06:42.177Z,48.63
2023-01-25T09:09:10.581Z,41.88
2023-01-25T09:11:40.259Z,45.35
2023-01-25T09:14:08.619Z,42.50
2023-01-25T09:16:37.131Z,39.85
2023-01-25T09:19:06.901Z,45.67
2023-01-25T09:21:37.159Z,44.92
2023-01-25T09:24:07.212Z,41.30
2023-01-25T09:26:37.156Z,46.53
2023-01-25T09:29:08.017Z,43.30
2023-01-25T09:31:37.143Z,50.53
2023-01-25T09:34:17.655Z,47.33
2023-01-25T09:36:46.105Z,45.20
2023-01-25T09:39:14.523Z,47.25
2023-01-25T09:42:06.663Z,49.75
2023-01-25T09:44:52.388Z,51.40
2023-01-25T09:47:24.161Z,48.75
2023-01-25T09:50:02.385Z,53.15
2023-01-25T09:52:45.712Z,48.65
2023-01-25T09:55:15.531Z,40.10
2023-01-25T09:57:45.345Z,48.08
2023-01-25T10:00:16.752Z,43.83
2023-01-25T10:02:49.465Z,47.47
2023-01-25T10:05:20.867Z,44.75
2023-01-25T10:07:55.340Z,51.70
2023-01-25T10:10:25.056Z,52.28
2023-01-25T10:12:53.296Z,46.50
2023-01-25T10:15:22.432Z,47.47
2023-01-25T10:17:58.618Z,53.70
2023-01-25T10:20:33.341Z,48.42
2023-01-25T10:23:09.722Z,56.03
2023-01-25T10:25:41.185Z,49.03
2023-01-25T10:28:28.035Z,56.00
2023-01-25T10:31:00.074Z,56.08
2023-01-25T10:33:30.130Z,60.58
2023-01-25T10:36:02.640Z,51.78
2023-01-25T10:38:34.603Z,54.38
2023-01-25T10:41:06.411Z,54.20
2023-01-25T10:43:34.648Z,55.28
2023-01-25T10:46:03.777Z,47.72
2023-01-25T10:48:34.005Z,54.22
2023-01-25T10:51:03.867Z,51.20
2023-01-25T10:53:33.732Z,55.53
2023-01-25T10:56:12.913Z,51.30
2023-01-25T10:58:42.158Z,49.17
2023-01-25T11:01:12.447Z,54.70
2023-01-25T11:03:41.700Z,57.60
2023-01-25T11:06:11.326Z,53.55
2023-01-25T11:08:40.449Z,52.90
2023-01-25T11:11:16.945Z,55.78
2023-01-25T11:13:45.398Z,54.65
2023-01-25T11:16:22.163Z,51.03
2023-01-25T11:18:54.743Z,57.58
2023-01-25T11:21:25.641Z,50.47
2023-01-25T11:24:00.767Z,56.22
2023-01-25T11:26:29.594Z,57.85
2023-01-25T11:29:08.676Z,52.80
2023-01-25T11:31:37.034Z,57.50
2023-01-25T11:34:10.044Z,59.25
2023-01-25T11:36:44.100Z,51.83
2023-01-25T11:39:15.758Z,59.00
2023-01-25T11:41:50.195Z,54.40
2023-01-25T11:44:36.472Z,54.65
2023-01-25T11:47:07.091Z,62.45
2023-01-25T11:49:40.531Z,56.90
2023-01-25T11:52:18.693Z,57.30
2023-01-25T11:54:51.354Z,57.53
2023-01-25T11:57:29.771Z,57.33
2023-01-25T12:00:03.649Z,56.17
2023-01-25T12:02:45.007Z,51.63
2023-01-25T12:05:21.852Z,58.92
2023-01-25T12:07:56.044Z,55.38
2023-01-25T12:10:27.080Z,60.53
2023-01-25T12:12:58.529Z,57.55
2023-01-25T12:15:37.215Z,52.42
2023-01-25T12:18:12.833Z,59.95
2023-01-25T12:20:46.963Z,54.35
2023-01-25T12:23:33.535Z,55.72
2023-01-25T12:26:14.780Z,62.65
2023-01-25T12:28:45.032Z,60.72
2023-01-25T12:31:16.401Z,58.25
2023-01-25T12:33:46.935Z,56.17
2023-01-25T12:36:19.049Z,56.25
2023-01-25T12:38:54.647Z,62.55
2023-01-25T12:41:27.448Z,55.10
2023-01-25T12:43:56.825Z,60.30
2023-01-25T12:46:27.925Z,57.70
2023-01-25T12:48:58.621Z,53.85
2023-01-25T12:51:31.552Z,62.38
2023-01-25T12:54:02.252Z,59.50
2023-01-25T12:56:43.906Z,64.00
2023-01-25T12:59:19.230Z,57.50
2023-01-25T13:01:49.606Z,54.13
2023-01-25T13:04:26.444Z,57.03
2023-01-25T13:06:57.273Z,58.30
2023-01-25T13:09:30.696Z,58.05
2023-01-25T13:11:59.702Z,57.70
2023-01-25T13:14:29.864Z,52.13
2023-01-25T13:17:11.790Z,55.83
2023-01-25T13:19:42.938Z,50.85
2023-01-25T13:22:12.122Z,54.58
2023-01-25T13:24:59.113Z,56.38
2023-01-25T13:27:30.326Z,50.40
2023-01-25T13:30:00.284Z,55.15
2023-01-25T13:32:47.503Z,61.38
2023-01-25T13:35:27.370Z,55.33
2023-01-25T13:38:00.034Z,50.83
2023-01-25T13:40:31.943Z,58.55
2023-01-25T13:43:03.759Z,52.75
2023-01-25T13:45:34.167Z,54.80
2023-01-25T13:48:04.398Z,55.85
2023-01-25T13:50:36.204Z,51.63
2023-01-25T13:53:05.626Z,58.50
2023-01-25T13:55:40.229Z,50.78
2023-01-25T13:58:17.689Z,50.15
2023-01-25T14:00:49.565Z,51.50
2023-01-25T14:03:18.242Z,54.38
2023-01-25T14:05:50.799Z,52.85
2023-01-25T14:08:20.405Z,54.95
2023-01-25T14:10:49.000Z,45.90
2023-01-25T14:13:18.956Z,50.15
2023-01-25T14:15:54.536Z,49.47
2023-01-25T14:18:23.586Z,48.25
2023-01-25T14:20:53.515Z,47.67
2023-01-25T14:23:22.810Z,45.03
2023-01-25T14:25:51.403Z,50.58
2023-01-25T14:28:21.560Z,49.42
2023-01-25T14:30:52.922Z,42.70
2023-01-25T14:33:22.749Z,49.70
2023-01-25T14:35:57.332Z,48.05
2023-01-25T14:38:29.782Z,49.80
2023-01-25T14:40:59.940Z,48.22
2023-01-25T14:43:30.386Z,46.03
2023-01-25T14:45:58.801Z,50.67
2023-01-25T14:48:37.076Z,52.20
2023-01-25T14:51:06.953Z,50.70
2023-01-25T14:53:35.226Z,46.88
2023-01-25T14:56:03.942Z,44.80
2023-01-25T14:58:34.046Z,52.92
2023-01-25T15:01:03.483Z,50.92
2023-01-25T15:03:32.902Z,46.70
2023-01-25T15:06:04.466Z,57.10
2023-01-25T15:08:37.606Z,48.30
2023-01-25T15:11:19.764Z,54.63
2023-01-25T15:13:49.527Z,49.22
2023-01-25T15:16:17.876Z,48.33
2023-01-25T15:18:47.079Z,51.35
2023-01-25T15:21:16.043Z,51.90
2023-01-25T15:23:45.474Z,54.80
2023-01-25T15:26:15.711Z,51.38
2023-01-25T15:28:43.983Z,52.13
2023-01-25T15:31:17.627Z,52.00
2023-01-25T15:33:45.933Z,53.03
2023-01-25T15:36:15.919Z,52.28
2023-01-25T15:38:44.458Z,51.55
2023-01-25T15:41:13.816Z,51.80
2023-01-25T15:43:42.342Z,52.40
2023-01-25T15:46:16.100Z,50.28
2023-01-25T15:48:46.736Z,52.88
2023-01-25T15:51:15.172Z,46.20
2023-01-25T15:53:43.585Z,50.33
2023-01-25T15:56:14.850Z,48.33
2023-01-25T15:58:44.520Z,61.22
2023-01-25T16:01:12.874Z,50.13
2023-01-25T16:03:41.690Z,55.17
2023-01-25T16:06:22.480Z,55.50
2023-01-25T16:08:50.800Z,54.72
2023-01-25T16:11:19.098Z,50.10
2023-01-25T16:13:47.951Z,61.10
2023-01-25T16:16:19.089Z,47.90
2023-01-25T16:18:47.462Z,49.50
2023-01-25T16:21:17.113Z,48.20
2023-01-25T16:23:45.722Z,45.33
2023-01-25T16:26:19.656Z,52.53
2023-01-25T16:28:47.985Z,52.08
2023-01-25T16:31:30.762Z,47.00
2023-01-25T16:34:00.810Z,51.95
2023-01-25T16:36:31.424Z,55.67
2023-01-25T16:39:07.388Z,57.50
2023-01-25T16:41:35.752Z,53.67
2023-01-25T16:44:03.939Z,50.90
2023-01-25T16:46:32.266Z,52.28
2023-01-25T16:49:04.268Z,55.60
2023-01-25T16:51:33.963Z,62.80
2023-01-25T16:54:02.595Z,58.83
2023-01-25T16:56:31.651Z,57.35
2023-01-25T16:59:02.506Z,54.45
2023-01-25T17:01:31.052Z,56.55
2023-01-25T17:03:59.705Z,67.30
2023-01-25T17:06:29.770Z,61.70
2023-01-25T17:09:09.348Z,55.67
2023-01-25T17:11:40.794Z,56.88
2023-01-25T17:14:09.516Z,65.57
2023-01-25T17:16:37.768Z,58.30
2023-01-25T17:19:07.062Z,68.53
2023-01-25T17:21:35.843Z,65.00
2023-01-25T17:24:06.053Z,62.33
2023-01-25T17:26:34.483Z,62.75
2023-01-25T17:29:03.895Z,61.03
2023-01-25T17:31:33.605Z,62.85
2023-01-25T17:34:03.742Z,64.78
2023-01-25T17:36:32.211Z,60.53
2023-01-25T17:39:03.020Z,58.22
2023-01-25T17:41:33.176Z,63.08
2023-01-25T17:44:01.690Z,66.90
2023-01-25T17:46:33.050Z,62.67
2023-01-25T17:49:02.783Z,60.72
2023-01-25T17:51:33.322Z,71.57
2023-01-25T17:54:02.074Z,68.72
2023-01-25T17:56:30.891Z,73.38
2023-01-25T17:59:02.221Z,79.57
2023-01-25T18:01:34.240Z,81.30
2023-01-25T18:04:02.656Z,72.60
2023-01-25T18:06:32.066Z,82.00
2023-01-25T18:09:01.291Z,74.88
2023-01-25T18:11:31.636Z,81.53
2023-01-25T18:14:02.689Z,82.47
2023-01-25T18:16:32.051Z,71.43
2023-01-25T18:19:01.239Z,81.78
2023-01-25T18:21:31.583Z,82.25
2023-01-25T18:24:01.771Z,90.55
2023-01-25T18:26:31.815Z,80.00
2023-01-25T18:29:03.709Z,86.45
2023-01-25T18:31:32.185Z,86.38
2023-01-25T18:34:00.522Z,82.30
2023-01-25T18:36:28.896Z,84.60
2023-01-25T18:38:58.364Z,84.15
2023-01-25T18:41:27.078Z,84.82
2023-01-25T18:43:56.640Z,78.47
2023-01-25T18:46:26.485Z,76.95
2023-01-25T18:48:54.833Z,79.70
2023-01-25T18:51:23.412Z,81.20
2023-01-25T18:53:51.684Z,75.90
2023-01-25T18:56:20.988Z,79.18
2023-01-25T18:58:50.067Z,80.00
2023-01-25T19:01:19.486Z,75.63
2023-01-25T19:03:50.179Z,84.20
2023-01-25T19:06:18.881Z,79.97
2023-01-25T19:08:53.162Z,82.45
2023-01-25T19:11:22.587Z,80.10
2023-01-25T19:13:51.465Z,89.03
2023-01-25T19:16:20.614Z,81.68
2023-01-25T19:18:52.021Z,94.60
2023-01-25T19:21:21.513Z,94.15
2023-01-25T19:23:50.083Z,86.45
2023-01-25T19:26:19.389Z,94.22
2023-01-25T19:28:48.170Z,87.50
2023-01-25T19:31:17.796Z,98.32
2023-01-25T19:33:46.728Z,95.68
2023-01-25T19:36:18.331Z,91.60
2023-01-25T19:38:47.127Z,89.15
2023-01-25T19:41:16.145Z,94.05
2023-01-25T19:43:44.605Z,89.72
2023-01-25T19:46:13.934Z,99.20
2023-01-25T19:48:42.614Z,84.32
2023-01-25T19:51:11.804Z,94.60
2023-01-25T19:53:46.129Z,99.90
2023-01-25T19:56:16.210Z,89.55
2023-01-25T19:58:45.303Z,99.30
2023-01-25T20:01:14.573Z,84.00
2023-01-25T20:03:43.286Z,103.53
2023-01-25T20:06:12.002Z,90.65
2023-01-25T20:08:42.338Z,103.63
2023-01-25T20:11:12.703Z,87.10
2023-01-25T20:13:41.345Z,106.45
2023-01-25T20:16:10.402Z,97.85
2023-01-25T20:18:38.700Z,109.38
2023-01-25T20:21:07.999Z,103.32
2023-01-25T20:23:36.660Z,99.05
2023-01-25T20:26:07.412Z,92.72
2023-01-25T20:28:36.545Z,98.53
2023-01-25T20:31:05.604Z,92.05
2023-01-25T20:33:34.551Z,98.15
2023-01-25T20:36:03.363Z,98.35
2023-01-25T20:38:32.500Z,109.15
2023-01-25T20:41:01.917Z,98.35
2023-01-25T20:43:31.850Z,114.25
2023-01-25T20:46:00.614Z,95.18
2023-01-25T20:48:29.815Z,94.65
2023-01-25T20:51:02.578Z,99.00
2023-01-25T20:53:31.080Z,94.43
2023-01-25T20:55:59.984Z,110.30
2023-01-25T20:58:28.772Z,114.38
2023-01-25T21:00:58.537Z,115.43
2023-01-25T21:03:29.755Z,94.60
2023-01-25T21:06:00.561Z,103.30
2023-01-25T21:08:29.768Z,88.47
2023-01-25T21:10:58.961Z,114.28
2023-01-25T21:13:28.643Z,96.75
2023-01-25T21:16:02.062Z,102.68
2023-01-25T21:18:31.221Z,90.53
2023-01-25T21:21:03.206Z,92.43
2023-01-25T21:23:33.387Z,91.88
2023-01-25T21:26:01.878Z,99.07
2023-01-25T21:28:30.609Z,100.13
2023-01-25T21:30:59.517Z,92.93
2023-01-25T21:33:29.469Z,104.60
2023-01-25T21:36:01.608Z,91.57
2023-01-25T21:38:29.829Z,94.80
2023-01-25T21:41:01.805Z,91.07
2023-01-25T21:43:30.462Z,91.55
2023-01-25T21:46:13.569Z,89.18
2023-01-25T21:49:01.185Z,96.32
2023-01-25T21:51:39.671Z,92.95
2023-01-25T21:54:08.192Z,94.18
2023-01-25T21:56:36.447Z,83.50
2023-01-25T21:59:04.784Z,96.32
2023-01-25T22:01:33.110Z,97.60
2023-01-25T22:04:02.896Z,95.95
2023-01-25T22:06:31.473Z,111.38
2023-01-25T22:08:59.808Z,96.78
2023-01-25T22:11:28.395Z,95.03
2023-01-25T22:13:56.768Z,93.22
2023-01-25T22:16:25.276Z,100.15
2023-01-25T22:18:53.615Z,91.88
2023-01-25T22:21:24.172Z,87.28
2023-01-25T22:23:53.043Z,98.20
2023-01-25T22:26:22.059Z,88.32
2023-01-25T22:28:50.846Z,89.82
2023-01-25T22:31:20.174Z,84.32
2023-01-25T22:33:50.266Z,94.88
2023-01-25T22:36:19.533Z,87.07
2023-01-25T22:38:49.308Z,94.32
2023-01-25T22:41:18.538Z,84.68
2023-01-25T22:43:47.564Z,79.38
2023-01-25T22:46:16.847Z,81.22
2023-01-25T22:48:45.108Z,86.18
2023-01-25T22:51:14.436Z,72.78
2023-01-25T22:53:42.745Z,80.97
2023-01-25T22:56:14.015Z,85.13
2023-01-25T22:58:43.122Z,71.93
2023-01-25T23:01:11.909Z,70.55
2023-01-25T23:03:40.246Z,75.18
2023-01-25T23:06:09.830Z,70.82
2023-01-25T23:08:38.929Z,74.25
2023-01-25T23:11:08.316Z,66.55
2023-01-25T23:13:39.736Z,71.20
2023-01-25T23:16:09.132Z,65.93
2023-01-25T23:18:52.520Z,72.00
2023-01-25T23:21:21.896Z,68.20
2023-01-25T23:23:50.991Z,62.20
2023-01-25T23:26:19.248Z,65.68
2023-01-25T23:28:53.012Z,66.55
2023-01-25T23:31:22.293Z,60.05
2023-01-25T23:33:51.187Z,55.78
2023-01-25T23:36:20.869Z,61.17
2023-01-25T23:38:49.231Z,58.38
2023-01-25T23:41:18.020Z,62.40
2023-01-25T23:43:46.756Z,62.40
2023-01-25T23:46:16.854Z,59.35
2023-01-25T23:48:45.663Z,61.83
2023-01-25T23:51:14.466Z,57.83
2023-01-25T23:53:42.999Z,64.97
2023-01-25T23:56:14.738Z,59.70
2023-01-25T23:58:43.357Z,56.50
